Time;durP1;ratioP1;P1;durP2;ratioP2;P2;SDS_P1;SDS_P2;PMS_P1;PMS_P2;Temp;Humidity;BMP_temperature;BMP_pressure;BME280_temperature;BME280_humidity;BME280_pressure;Samples;Min_cycle;Max_cycle;Signal;HPM_P1;HPM_P2
2021/08/24 00:00:50;;;;;;;1.02;0.30;;;14.30;99.90;;;;;;5093404;28;20035;-76
2021/08/24 00:03:17;;;;;;;0.93;0.32;;;14.20;99.90;;;;;;5075074;28;20436;-76
2021/08/24 00:05:42;;;;;;;1.70;0.30;;;14.20;99.90;;;;;;5093162;28;20056;-76
2021/08/24 00:08:08;;;;;;;1.00;0.30;;;14.10;99.90;;;;;;5093496;28;20406;-75
2021/08/24 00:10:41;;;;;;;1.67;0.20;;;14.10;99.90;;;;;;5075414;28;20416;-75
2021/08/24 00:13:08;;;;;;;3.17;0.10;;;14.10;99.90;;;;;;5076072;28;20469;-76
2021/08/24 00:15:34;;;;;;;1.55;0.10;;;14.10;99.90;;;;;;5078886;28;20061;-76
2021/08/24 00:18:00;;;;;;;1.30;0.10;;;14.10;99.90;;;;;;5078905;28;20020;-76
2021/08/24 00:20:31;;;;;;;0.75;0.10;;;14.00;99.90;;;;;;5078744;28;20020;-76
2021/08/24 00:22:59;;;;;;;0.50;0.30;;;14.00;99.90;;;;;;5096887;28;20054;-76
2021/08/24 00:25:25;;;;;;;0.93;0.10;;;13.90;99.90;;;;;;5096835;28;20056;-74
2021/08/24 00:27:50;;;;;;;1.45;0.13;;;13.90;99.90;;;;;;5096699;28;20489;-75
2021/08/24 00:30:16;;;;;;;1.30;0.20;;;13.90;99.90;;;;;;5078475;28;20385;-75
2021/08/24 00:32:41;;;;;;;0.60;0.10;;;13.90;99.90;;;;;;5096947;28;20063;-77
2021/08/24 00:35:08;;;;;;;2.38;0.20;;;13.90;99.90;;;;;;5079048;28;20031;-76
2021/08/24 00:37:34;;;;;;;1.38;0.43;;;13.80;99.90;;;;;;5096396;28;20499;-76
2021/08/24 00:39:59;;;;;;;1.92;0.22;;;13.80;99.90;;;;;;5078361;28;20032;-76
2021/08/24 00:42:25;;;;;;;1.05;0.10;;;13.80;99.90;;;;;;5116492;22;20031;-75
2021/08/24 00:44:51;;;;;;;2.60;0.10;;;13.70;99.90;;;;;;5094927;28;20036;-75
2021/08/24 00:47:19;;;;;;;5.47;0.65;;;13.80;99.90;;;;;;5096888;28;20473;-78
2021/08/24 00:49:47;;;;;;;1.13;0.13;;;13.80;99.90;;;;;;5096685;28;20101;-77
2021/08/24 00:52:16;;;;;;;2.13;0.10;;;13.80;99.90;;;;;;5096474;28;20025;-75
2021/08/24 00:54:44;;;;;;;2.42;0.10;;;13.80;99.90;;;;;;5056070;28;20103;-76
2021/08/24 00:57:13;;;;;;;3.40;0.47;;;13.70;99.90;;;;;;5071582;22;20037;-78
2021/08/24 00:59:41;;;;;;;0.85;0.00;;;13.70;99.90;;;;;;5075726;28;20103;-75
2021/08/24 01:02:08;;;;;;;1.75;0.22;;;13.70;99.90;;;;;;5076167;28;20048;-76
2021/08/24 01:04:35;;;;;;;1.52;0.20;;;13.60;99.90;;;;;;5057655;28;20013;-76
2021/08/24 01:07:08;;;;;;;1.98;0.20;;;13.60;99.90;;;;;;5075533;28;20131;-76
2021/08/24 01:09:52;;;;;;;0.57;0.10;;;13.60;99.90;;;;;;5075654;28;20401;-76
2021/08/24 01:12:55;;;;;;;0.93;0.10;;;13.50;99.90;;;;;;5057408;28;20031;-75
2021/08/24 01:15:44;;;;;;;1.85;0.20;;;13.40;99.90;;;;;;5040150;28;20037;-75
2021/08/24 01:18:15;;;;;;;1.13;0.20;;;13.40;99.90;;;;;;5037511;28;20021;-75
2021/08/24 01:21:18;;;;;;;0.93;0.13;;;13.40;99.90;;;;;;5055824;28;20102;-75
2021/08/24 01:23:49;;;;;;;3.63;0.20;;;13.30;99.90;;;;;;5066185;28;20058;-77
2021/08/24 01:26:34;;;;;;;0.63;0.10;;;13.30;99.90;;;;;;5074774;28;20386;-77
2021/08/24 01:29:21;;;;;;;0.88;0.30;;;13.30;99.90;;;;;;5075613;28;20021;-77
2021/08/24 01:32:11;;;;;;;1.15;0.10;;;13.30;99.90;;;;;;5076035;28;20024;-77
2021/08/24 01:34:56;;;;;;;3.22;0.28;;;13.20;99.90;;;;;;5056864;28;20461;-77
2021/08/24 01:37:40;;;;;;;1.73;0.63;;;13.20;99.90;;;;;;5075200;28;20025;-76
2021/08/24 01:40:13;;;;;;;3.58;0.45;;;13.20;99.90;;;;;;5056816;28;20029;-75
2021/08/24 01:42:39;;;;;;;2.85;0.57;;;13.20;99.90;;;;;;5056384;28;20029;-75
2021/08/24 01:45:14;;;;;;;1.23;0.30;;;13.20;99.90;;;;;;5055127;28;20108;-77
2021/08/24 01:48:00;;;;;;;1.95;0.60;;;13.20;99.90;;;;;;5091216;22;20085;-75
2021/08/24 01:50:39;;;;;;;2.05;0.47;;;13.20;99.90;;;;;;5095129;28;20026;-76
2021/08/24 01:53:26;;;;;;;4.97;1.08;;;13.20;99.90;;;;;;5094642;28;20383;-75
2021/08/24 01:55:58;;;;;;;3.05;0.32;;;13.20;99.90;;;;;;5094885;28;20032;-75
2021/08/24 01:58:31;;;;;;;2.40;0.38;;;13.20;99.90;;;;;;5095040;28;20473;-75
2021/08/24 02:00:59;;;;;;;2.40;1.00;;;13.20;99.90;;;;;;5094569;28;20039;-76
2021/08/24 02:03:42;;;;;;;2.75;0.32;;;13.10;99.90;;;;;;5074888;28;20051;-77
2021/08/24 02:06:38;;;;;;;4.05;0.55;;;13.10;99.90;;;;;;5054584;28;20044;-77
2021/08/24 02:09:10;;;;;;;4.43;0.68;;;13.10;99.90;;;;;;5053428;28;20094;-77
2021/08/24 02:11:36;;;;;;;3.42;1.15;;;13.10;99.90;;;;;;5053301;28;20036;-76
2021/08/24 02:14:08;;;;;;;6.60;0.60;;;13.10;99.90;;;;;;5053193;28;20021;-76
2021/08/24 02:16:35;;;;;;;1.40;0.47;;;13.10;99.90;;;;;;5053234;28;20036;-75
2021/08/24 02:19:14;;;;;;;5.20;0.95;;;13.10;99.90;;;;;;5054496;28;20104;-74
2021/08/24 02:21:46;;;;;;;1.35;0.70;;;13.10;99.90;;;;;;5054292;28;20478;-75
2021/08/24 02:24:16;;;;;;;0.98;0.20;;;13.10;99.90;;;;;;5061091;28;20090;-77
2021/08/24 02:26:44;;;;;;;5.38;0.65;;;13.10;99.90;;;;;;5092945;28;20154;-76
2021/08/24 02:29:10;;;;;;;2.58;0.98;;;13.10;99.90;;;;;;5094026;28;20415;-75
2021/08/24 02:31:46;;;;;;;3.60;0.70;;;13.10;99.90;;;;;;5094563;28;20030;-75
2021/08/24 02:34:38;;;;;;;2.38;0.55;;;13.20;99.90;;;;;;5090843;28;20024;-76
2021/08/24 02:37:15;;;;;;;3.63;0.82;;;13.10;99.90;;;;;;5073008;28;20058;-76
2021/08/24 02:39:52;;;;;;;3.25;0.43;;;13.20;99.90;;;;;;5074082;28;20028;-77
2021/08/24 02:42:29;;;;;;;4.25;1.00;;;13.20;99.90;;;;;;5075375;28;20421;-75
2021/08/24 02:45:07;;;;;;;1.58;0.80;;;13.20;99.90;;;;;;5094315;28;20020;-75
2021/08/24 02:47:33;;;;;;;2.30;0.50;;;13.20;99.90;;;;;;5093761;28;20098;-75
2021/08/24 02:50:03;;;;;;;4.55;0.95;;;13.20;99.90;;;;;;5093807;28;20020;-75
2021/08/24 02:52:29;;;;;;;1.33;0.40;;;13.20;99.90;;;;;;5086985;28;20411;-74
2021/08/24 02:54:54;;;;;;;4.43;1.02;;;13.10;99.90;;;;;;5073509;28;20021;-74
2021/08/24 02:57:20;;;;;;;4.28;1.17;;;13.10;99.90;;;;;;5073839;28;20027;-76
2021/08/24 02:59:45;;;;;;;3.78;0.95;;;13.10;99.90;;;;;;5073792;28;20017;-76
2021/08/24 03:02:12;;;;;;;2.53;0.90;;;13.10;99.90;;;;;;5077136;28;20024;-75
2021/08/24 03:04:38;;;;;;;4.88;0.77;;;13.10;99.90;;;;;;5093880;28;20028;-78
2021/08/24 03:07:22;;;;;;;2.97;0.73;;;13.10;99.90;;;;;;5094019;28;20435;-75
2021/08/24 03:09:49;;;;;;;1.50;0.50;;;13.00;99.90;;;;;;5093936;28;20017;-75
2021/08/24 03:12:28;;;;;;;1.98;0.73;;;13.00;99.90;;;;;;5088668;28;20501;-75
2021/08/24 03:15:02;;;;;;;5.55;0.95;;;13.10;99.90;;;;;;5083930;28;20389;-75
2021/08/24 03:17:39;;;;;;;1.85;0.40;;;13.00;99.90;;;;;;5092246;28;20016;-76
2021/08/24 03:20:08;;;;;;;3.92;1.75;;;13.00;99.90;;;;;;5093295;28;20055;-76
2021/08/24 03:22:35;;;;;;;3.90;0.90;;;13.00;99.90;;;;;;5085095;28;20082;-76
2021/08/24 03:25:03;;;;;;;4.32;0.88;;;13.00;99.90;;;;;;5073725;28;20090;-78
2021/08/24 03:27:33;;;;;;;5.47;1.52;;;13.00;99.90;;;;;;5071984;28;20027;-75
2021/08/24 03:30:03;;;;;;;6.85;1.20;;;13.00;99.90;;;;;;5071774;28;20070;-76
2021/08/24 03:32:28;;;;;;;6.85;2.30;;;13.00;99.90;;;;;;5078397;28;20020;-76
2021/08/24 03:34:54;;;;;;;7.47;1.35;;;13.00;99.90;;;;;;5080049;28;20020;-77
2021/08/24 03:37:20;;;;;;;8.00;1.83;;;12.90;99.90;;;;;;5093263;28;20032;-76
2021/08/24 03:39:46;;;;;;;3.30;0.95;;;12.90;99.90;;;;;;5093344;28;20016;-75
2021/08/24 03:42:11;;;;;;;6.53;1.70;;;12.90;99.90;;;;;;5093240;28;20020;-76
2021/08/24 03:44:37;;;;;;;3.35;0.93;;;12.90;99.90;;;;;;5091810;28;20031;-77
2021/08/24 03:47:03;;;;;;;4.10;0.98;;;12.80;99.90;;;;;;5071688;28;20486;-75
2021/08/24 03:49:28;;;;;;;6.03;1.27;;;12.80;99.90;;;;;;5075189;28;20024;-76
2021/08/24 03:51:53;;;;;;;4.55;0.90;;;12.80;99.90;;;;;;5077554;28;20028;-77
2021/08/24 03:54:19;;;;;;;1.85;0.88;;;12.90;99.90;;;;;;5088865;28;20038;-74
2021/08/24 03:56:45;;;;;;;4.40;1.13;;;12.70;99.90;;;;;;5097137;28;20399;-74
2021/08/24 03:59:11;;;;;;;4.22;1.33;;;12.70;99.90;;;;;;5095970;28;20075;-76
2021/08/24 04:01:36;;;;;;;3.90;1.23;;;12.70;99.90;;;;;;5096966;28;20115;-76
2021/08/24 04:04:02;;;;;;;3.80;1.20;;;12.70;99.90;;;;;;5092082;28;20077;-76
2021/08/24 04:06:27;;;;;;;4.82;1.42;;;12.60;99.90;;;;;;5075447;28;20021;-76
2021/08/24 04:08:53;;;;;;;4.68;1.55;;;12.60;99.90;;;;;;5075364;28;20092;-76
2021/08/24 04:11:19;;;;;;;4.38;1.60;;;12.60;99.90;;;;;;5076471;28;20020;-74
2021/08/24 04:13:44;;;;;;;5.55;1.35;;;12.60;99.90;;;;;;5075172;28;20028;-76
2021/08/24 04:16:12;;;;;;;4.10;1.77;;;12.60;99.90;;;;;;5077084;28;20032;-75
2021/08/24 04:18:38;;;;;;;4.35;1.52;;;12.60;99.90;;;;;;5075422;28;20024;-76
2021/08/24 04:21:13;;;;;;;3.75;1.25;;;12.60;99.90;;;;;;5076536;28;20078;-76
2021/08/24 04:23:39;;;;;;;5.07;2.20;;;12.60;99.90;;;;;;5075400;28;20024;-76
2021/08/24 04:26:05;;;;;;;5.05;1.65;;;12.60;99.90;;;;;;5076451;28;20390;-76
2021/08/24 04:28:32;;;;;;;4.32;1.58;;;12.60;99.90;;;;;;5075371;28;20386;-76
2021/08/24 04:30:57;;;;;;;7.07;1.52;;;12.60;99.90;;;;;;5076460;28;20367;-76
2021/08/24 04:33:24;;;;;;;4.63;1.13;;;12.60;99.90;;;;;;5075018;28;20016;-76
2021/08/24 04:35:51;;;;;;;3.60;1.08;;;12.70;99.90;;;;;;5075465;28;20020;-78
2021/08/24 04:38:17;;;;;;;8.80;1.80;;;12.70;99.90;;;;;;5076237;28;20021;-74
2021/08/24 04:40:44;;;;;;;5.80;1.50;;;12.70;99.90;;;;;;5076255;28;20151;-74
2021/08/24 04:43:09;;;;;;;7.10;2.50;;;12.70;99.90;;;;;;5077300;28;20036;-77
2021/08/24 04:45:35;;;;;;;2.95;1.50;;;12.80;99.90;;;;;;5075179;28;20021;-78
2021/08/24 04:48:00;;;;;;;4.93;2.05;;;12.80;99.90;;;;;;5076025;28;20404;-76
2021/08/24 04:50:26;;;;;;;4.07;1.35;;;12.80;99.90;;;;;;5076127;28;20028;-75
2021/08/24 04:52:51;;;;;;;2.75;1.13;;;12.90;99.90;;;;;;5093979;28;20301;-76
2021/08/24 04:55:17;;;;;;;4.90;1.85;;;12.90;99.90;;;;;;5095040;28;20012;-76
2021/08/24 04:57:42;;;;;;;3.28;1.55;;;12.90;99.90;;;;;;5094925;28;20020;-76
2021/08/24 05:00:09;;;;;;;5.70;1.63;;;12.90;99.90;;;;;;5095241;28;20028;-76
2021/08/24 05:02:34;;;;;;;5.28;1.95;;;12.90;99.90;;;;;;5094785;28;20024;-76
2021/08/24 05:05:00;;;;;;;5.70;2.25;;;12.90;99.90;;;;;;5096284;28;20089;-76
2021/08/24 05:07:26;;;;;;;5.70;1.98;;;13.00;99.90;;;;;;5095879;28;20537;-76
2021/08/24 05:09:51;;;;;;;3.30;1.65;;;13.00;99.90;;;;;;5094900;28;20100;-74
2021/08/24 05:12:17;;;;;;;4.75;1.50;;;13.00;99.90;;;;;;5094345;28;20028;-75
2021/08/24 05:14:42;;;;;;;3.17;1.55;;;13.10;99.90;;;;;;5094509;28;20013;-75
2021/08/24 05:17:08;;;;;;;4.75;2.03;;;13.10;99.90;;;;;;5096287;28;20032;-75
2021/08/24 05:19:33;;;;;;;3.85;2.10;;;13.20;99.90;;;;;;5096157;28;20032;-77
2021/08/24 05:21:59;;;;;;;8.02;3.03;;;13.20;99.90;;;;;;5086057;28;20390;-77
2021/08/24 05:24:25;;;;;;;7.53;1.25;;;13.30;99.90;;;;;;5075597;28;20024;-77
2021/08/24 05:26:50;;;;;;;9.65;2.00;;;13.40;99.90;;;;;;5074355;28;20494;-77
2021/08/24 05:29:16;;;;;;;3.65;1.75;;;13.50;99.90;;;;;;5073152;28;20044;-77
2021/08/24 05:31:43;;;;;;;8.07;2.28;;;13.50;99.90;;;;;;5061271;28;20040;-78
2021/08/24 05:34:09;;;;;;;4.22;1.75;;;13.60;99.90;;;;;;5067765;28;20458;-77
2021/08/24 05:36:34;;;;;;;7.10;2.65;;;13.70;99.90;;;;;;5075933;28;20107;-76
2021/08/24 05:39:02;;;;;;;6.85;1.45;;;13.80;99.90;;;;;;5075176;28;20078;-76
2021/08/24 05:41:28;;;;;;;5.13;1.45;;;13.90;99.90;;;;;;5075408;28;20111;-76
2021/08/24 05:43:53;;;;;;;4.15;1.73;;;14.00;99.90;;;;;;5074889;28;20024;-76
2021/08/24 05:46:19;;;;;;;3.80;1.40;;;14.10;99.90;;;;;;5074979;28;20024;-76
2021/08/24 05:48:45;;;;;;;4.15;1.13;;;14.20;99.90;;;;;;5075123;28;20024;-77
2021/08/24 05:51:16;;;;;;;6.57;1.52;;;14.30;99.90;;;;;;5075179;28;20035;-77
2021/08/24 05:53:41;;;;;;;5.38;2.03;;;14.30;99.90;;;;;;5074785;28;20500;-77
2021/08/24 05:56:09;;;;;;;6.43;2.08;;;14.50;99.90;;;;;;5075200;28;20100;-77
2021/08/24 05:58:35;;;;;;;2.38;1.13;;;14.60;99.90;;;;;;5075001;28;20021;-76
2021/08/24 06:01:00;;;;;;;4.68;1.15;;;14.60;99.90;;;;;;5073568;28;20036;-77
2021/08/24 06:03:26;;;;;;;8.05;1.13;;;14.80;99.90;;;;;;5075127;28;20013;-77
2021/08/24 06:05:51;;;;;;;8.05;1.92;;;14.90;99.90;;;;;;5073327;28;20035;-77
2021/08/24 06:08:17;;;;;;;5.07;0.95;;;14.90;99.90;;;;;;5074755;28;20032;-76
2021/08/24 06:10:42;;;;;;;4.32;1.02;;;15.00;99.90;;;;;;5074310;28;20023;-75
2021/08/24 06:13:08;;;;;;;5.82;1.15;;;15.10;99.90;;;;;;5077107;28;20074;-75
2021/08/24 06:15:35;;;;;;;5.25;1.23;;;15.20;99.90;;;;;;5095109;28;20035;-74
2021/08/24 06:18:01;;;;;;;5.45;0.98;;;15.30;99.90;;;;;;5094742;28;20366;-77
2021/08/24 06:20:27;;;;;;;8.15;1.05;;;15.40;99.90;;;;;;5094963;28;20020;-76
2021/08/24 06:22:53;;;;;;;4.18;1.33;;;15.50;99.90;;;;;;5098988;22;20116;-74
2021/08/24 06:25:19;;;;;;;7.63;1.10;;;15.50;99.90;;;;;;5036627;28;20116;-74
2021/08/24 06:27:45;;;;;;;7.78;1.88;;;15.60;99.90;;;;;;5052116;28;20024;-76
2021/08/24 06:30:11;;;;;;;2.72;1.20;;;15.70;99.90;;;;;;5036737;28;20028;-76
2021/08/24 06:32:45;;;;;;;2.35;0.45;;;15.80;99.90;;;;;;5043654;22;20041;-75
2021/08/24 06:35:12;;;;;;;4.78;1.00;;;15.90;99.90;;;;;;5029959;28;20022;-76
2021/08/24 06:37:38;;;;;;;10.98;1.35;;;16.00;99.90;;;;;;5034621;28;20029;-74
2021/08/24 06:40:06;;;;;;;3.47;0.75;;;16.10;99.90;;;;;;5034025;28;20399;-76
2021/08/24 06:42:43;;;;;;;3.20;0.80;;;16.10;99.90;;;;;;5049269;28;20040;-76
2021/08/24 06:45:14;;;;;;;4.18;0.60;;;16.20;99.90;;;;;;5036137;28;20460;-75
2021/08/24 06:47:40;;;;;;;2.42;1.15;;;16.30;99.90;;;;;;5035733;28;20037;-75
2021/08/24 06:50:06;;;;;;;3.88;0.60;;;16.40;99.90;;;;;;5035619;28;20564;-76
2021/08/24 06:52:31;;;;;;;4.43;1.08;;;16.40;99.90;;;;;;5019248;28;20025;-76
2021/08/24 06:54:57;;;;;;;5.88;0.85;;;16.50;99.90;;;;;;5034072;28;20021;-75
2021/08/24 06:57:22;;;;;;;4.65;1.08;;;16.60;99.90;;;;;;5034004;28;20053;-74
2021/08/24 06:59:48;;;;;;;4.03;0.82;;;16.70;99.90;;;;;;5034124;28;20460;-74
2021/08/24 07:02:13;;;;;;;3.03;1.00;;;16.80;99.90;;;;;;5033681;28;20031;-74
2021/08/24 07:04:39;;;;;;;1.52;0.73;;;16.80;99.90;;;;;;5044912;22;20052;-75
2021/08/24 07:07:04;;;;;;;5.13;1.20;;;16.80;99.90;;;;;;5053506;28;20029;-75
2021/08/24 07:09:30;;;;;;;2.00;0.68;;;16.80;99.90;;;;;;5020871;28;20030;-75
2021/08/24 07:11:56;;;;;;;2.83;1.08;;;16.90;99.90;;;;;;5033500;28;20025;-75
2021/08/24 07:14:21;;;;;;;6.97;1.60;;;16.90;99.90;;;;;;5015716;28;20045;-74
2021/08/24 07:16:47;;;;;;;7.65;2.90;;;17.00;99.90;;;;;;5033539;28;20459;-76
2021/08/24 07:19:12;;;;;;;4.15;2.03;;;17.00;99.90;;;;;;5033881;28;20030;-74
2021/08/24 07:21:38;;;;;;;3.97;1.55;;;17.00;99.90;;;;;;5033667;28;20486;-75
2021/08/24 07:24:04;;;;;;;8.57;0.70;;;17.10;99.90;;;;;;5033220;28;20030;-75
2021/08/24 07:26:30;;;;;;;4.68;0.95;;;17.10;99.90;;;;;;5015535;28;20050;-74
2021/08/24 07:28:56;;;;;;;3.83;0.73;;;17.20;99.90;;;;;;5042924;28;20025;-74
2021/08/24 07:31:22;;;;;;;4.18;1.17;;;17.30;99.90;;;;;;5044033;28;20422;-76
2021/08/24 07:33:47;;;;;;;3.92;0.90;;;17.30;99.90;;;;;;5033112;28;20025;-74
2021/08/24 07:36:13;;;;;;;3.83;1.45;;;17.40;99.90;;;;;;5033294;28;20391;-75
2021/08/24 07:38:39;;;;;;;4.82;1.80;;;17.50;99.90;;;;;;5033391;28;20117;-75
2021/08/24 07:41:05;;;;;;;4.57;1.58;;;17.70;99.90;;;;;;5015624;28;20029;-76
2021/08/24 07:43:32;;;;;;;4.57;1.25;;;17.80;99.90;;;;;;5033283;28;20518;-74
2021/08/24 07:45:57;;;;;;;4.30;0.98;;;17.80;99.90;;;;;;5015431;28;20092;-75
2021/08/24 07:48:24;;;;;;;7.72;1.40;;;17.90;99.90;;;;;;5040244;28;20017;-76
2021/08/24 07:50:50;;;;;;;4.68;1.10;;;17.90;99.90;;;;;;5033063;28;20025;-75
2021/08/24 07:53:17;;;;;;;3.60;1.20;;;18.00;99.90;;;;;;5034777;23;20134;-75
2021/08/24 07:55:42;;;;;;;9.10;2.22;;;18.00;99.90;;;;;;5035218;28;20033;-75
2021/08/24 07:58:08;;;;;;;6.88;0.93;;;18.20;99.90;;;;;;5035186;28;20021;-74
2021/08/24 08:00:33;;;;;;;2.58;0.88;;;18.30;99.90;;;;;;5035133;28;20551;-76
2021/08/24 08:02:59;;;;;;;2.67;1.13;;;18.40;99.90;;;;;;5034914;28;20094;-76
2021/08/24 08:05:25;;;;;;;4.63;0.80;;;18.30;99.90;;;;;;5020694;28;20075;-76
2021/08/24 08:07:50;;;;;;;4.63;1.33;;;18.40;99.90;;;;;;5015344;28;20399;-76
2021/08/24 08:10:16;;;;;;;3.80;0.80;;;18.40;99.90;;;;;;5036800;28;20088;-75
2021/08/24 08:12:41;;;;;;;1.33;0.57;;;18.40;99.90;;;;;;5051932;28;20067;-75
2021/08/24 08:15:12;;;;;;;8.35;1.30;;;18.50;99.90;;;;;;5021676;28;20025;-76
2021/08/24 08:17:38;;;;;;;2.53;0.80;;;18.60;99.90;;;;;;5033206;28;20490;-76
2021/08/24 08:20:05;;;;;;;3.13;1.00;;;18.70;99.90;;;;;;5032956;28;20022;-76
2021/08/24 08:22:30;;;;;;;1.73;0.70;;;18.80;99.90;;;;;;5015827;28;20407;-75
2021/08/24 08:24:56;;;;;;;0.90;0.30;;;19.10;99.90;;;;;;5043676;28;20039;-75
2021/08/24 08:27:21;;;;;;;8.50;1.05;;;19.00;99.90;;;;;;5052696;28;20052;-75
2021/08/24 08:29:47;;;;;;;2.30;0.52;;;19.20;99.90;;;;;;5034859;28;20506;-75
2021/08/24 08:32:19;;;;;;;1.38;0.25;;;19.40;99.90;;;;;;5052780;28;20028;-75
2021/08/24 08:34:45;;;;;;;1.75;0.80;;;19.60;99.90;;;;;;5027642;28;20022;-75
2021/08/24 08:37:10;;;;;;;1.15;0.60;;;19.80;99.90;;;;;;5036869;28;20075;-74
2021/08/24 08:39:36;;;;;;;2.15;0.68;;;19.80;99.90;;;;;;5036384;28;20537;-76
2021/08/24 08:42:27;;;;;;;2.38;0.77;;;19.70;99.90;;;;;;5037457;28;20059;-75
2021/08/24 08:44:55;;;;;;;4.43;0.65;;;19.60;99.90;;;;;;5036354;28;20474;-76
2021/08/24 08:47:54;;;;;;;4.33;0.47;;;19.50;99.90;;;;;;5036287;28;20033;-75
2021/08/24 08:50:39;;;;;;;5.53;0.38;;;19.50;99.90;;;;;;5019808;28;20104;-76
2021/08/24 08:53:25;;;;;;;2.25;0.43;;;19.50;99.90;;;;;;5076659;22;20044;-75
2021/08/24 08:56:20;;;;;;;2.95;1.25;;;19.60;99.90;;;;;;5095922;22;20489;-75
2021/08/24 08:58:57;;;;;;;4.43;0.50;;;19.60;99.90;;;;;;5096260;28;20438;-75
2021/08/24 09:01:36;;;;;;;2.35;0.45;;;19.60;99.90;;;;;;5096594;28;20016;-75
2021/08/24 09:04:07;;;;;;;;;;;19.40;99.90;;;;;;5096482;28;20028;-76
2021/08/24 09:06:33;;;;;;;3.22;0.43;;;19.40;99.90;;;;;;5077826;28;20301;-76
2021/08/24 09:09:01;;;;;;;1.17;0.30;;;19.40;99.90;;;;;;5096033;28;20024;-74
2021/08/24 09:11:31;;;;;;;3.33;0.60;;;19.30;99.90;;;;;;5095339;28;20038;-74
2021/08/24 09:14:07;;;;;;;1.98;0.38;;;19.40;99.90;;;;;;5096447;28;20466;-75
2021/08/24 09:16:37;;;;;;;4.93;0.57;;;19.30;99.90;;;;;;5077859;28;20028;-74
2021/08/24 09:19:22;;;;;;;3.47;0.20;;;19.20;99.90;;;;;;5077735;28;20386;-74
2021/08/24 09:21:48;;;;;;;4.45;0.20;;;19.40;99.90;;;;;;5083560;28;20033;-75
2021/08/24 09:24:17;;;;;;;1.00;0.22;;;19.60;99.90;;;;;;5053872;22;20410;-75
2021/08/24 09:26:55;;;;;;;2.75;0.30;;;20.00;99.90;;;;;;5055434;28;20025;-75
2021/08/24 09:29:25;;;;;;;3.65;0.77;;;20.50;99.90;;;;;;5055496;28;20067;-75
2021/08/24 09:31:51;;;;;;;5.93;0.52;;;20.90;99.90;;;;;;5055515;28;20040;-75
2021/08/24 09:34:23;;;;;;;0.55;0.10;;;21.20;99.90;;;;;;5068294;22;20041;-75
2021/08/24 09:36:48;;;;;;;1.17;0.10;;;21.30;99.90;;;;;;5055319;28;20029;-74
2021/08/24 09:39:15;;;;;;;1.75;0.20;;;21.20;99.90;;;;;;5037377;28;20036;-75
2021/08/24 09:41:43;;;;;;;1.33;0.10;;;21.10;99.90;;;;;;5061683;28;20029;-75
2021/08/24 09:44:18;;;;;;;3.40;0.47;;;21.10;99.90;;;;;;5054958;28;20027;-75
2021/08/24 09:46:44;;;;;;;1.95;0.20;;;21.10;99.90;;;;;;5101210;22;20066;-75
2021/08/24 09:49:31;;;;;;;2.30;0.32;;;21.30;99.90;;;;;;5077911;28;20081;-75
2021/08/24 09:52:05;;;;;;;1.75;0.10;;;21.80;99.90;;;;;;5077221;28;20020;-76
2021/08/24 09:54:49;;;;;;;1.23;0.17;;;21.70;99.90;;;;;;5095288;28;20077;-76
2021/08/24 09:57:31;;;;;;;2.80;0.15;;;21.90;99.90;;;;;;5095053;28;20036;-76
2021/08/24 10:00:03;;;;;;;4.93;0.20;;;22.00;99.90;;;;;;5076974;28;20470;-75
2021/08/24 10:02:43;;;;;;;2.22;0.00;;;22.10;99.90;;;;;;5098711;22;20079;-76
2021/08/24 10:05:34;;;;;;;0.52;0.10;;;22.10;99.90;;;;;;5052393;28;20025;-76
2021/08/24 10:08:20;;;;;;;3.60;0.20;;;21.80;99.90;;;;;;5063595;28;20186;-76
2021/08/24 10:11:00;;;;;;;1.50;0.10;;;21.50;99.90;;;;;;5036696;28;20025;-76
2021/08/24 10:13:30;;;;;;;2.28;0.10;;;21.30;99.90;;;;;;5054954;28;20040;-76
2021/08/24 10:16:11;;;;;;;3.50;0.13;;;21.40;99.90;;;;;;5054841;28;20471;-75
2021/08/24 10:18:39;;;;;;;1.45;0.10;;;21.50;99.90;;;;;;5051951;28;20078;-77
2021/08/24 10:21:08;;;;;;;1.17;0.52;;;21.70;99.90;;;;;;5057056;28;20028;-75
2021/08/24 10:23:40;;;;;;;2.30;0.00;;;21.80;99.90;;;;;;5074387;28;20096;-75
2021/08/24 10:26:21;;;;;;;1.83;0.15;;;21.80;99.90;;;;;;5074880;28;20031;-76
2021/08/24 10:28:47;;;;;;;0.82;0.05;;;22.00;99.90;;;;;;5040590;28;20092;-74
2021/08/24 10:31:54;;;;;;;0.77;0.10;;;22.10;99.90;;;;;;5036799;28;20506;-74
2021/08/24 10:34:42;;;;;;;2.17;0.00;;;22.20;99.90;;;;;;5053674;28;20029;-76
2021/08/24 10:37:26;;;;;;;1.55;0.10;;;22.30;99.90;;;;;;5054367;28;20029;-76
2021/08/24 10:39:54;;;;;;;1.33;0.13;;;22.60;99.90;;;;;;5054190;28;20032;-75
2021/08/24 10:42:26;;;;;;;1.40;0.03;;;22.80;99.90;;;;;;5069169;22;20513;-73
2021/08/24 10:45:03;;;;;;;2.00;0.10;;;22.90;99.90;;;;;;5102255;22;20055;-73
2021/08/24 10:47:33;;;;;;;2.22;0.10;;;23.20;99.90;;;;;;5094410;28;20028;-75
2021/08/24 10:50:02;;;;;;;1.55;0.20;;;23.30;99.40;;;;;;5076196;28;20020;-74
2021/08/24 10:52:36;;;;;;;;;;;23.10;99.90;;;;;;5073119;28;20020;-75
2021/08/24 10:57:55;;;;;;;2.53;0.00;;;23.10;99.90;;;;;;5091742;28;20052;-75
2021/08/24 11:00:49;;;;;;;0.85;0.30;;;23.30;99.90;;;;;;5075529;28;20032;-73
2021/08/24 11:03:33;;;;;;;2.33;0.10;;;23.40;99.80;;;;;;5073889;28;20024;-74
2021/08/24 11:06:30;;;;;;;1.80;0.00;;;23.30;99.30;;;;;;5066271;28;20493;-74
2021/08/24 11:09:32;;;;;;;0.97;0.10;;;22.90;99.90;;;;;;5065179;28;20031;-73
2021/08/24 11:12:19;;;;;;;0.20;0.00;;;22.80;99.90;;;;;;5075639;28;20028;-74
2021/08/24 11:15:06;;;;;;;0.40;0.00;;;23.00;99.90;;;;;;5094211;28;20016;-76
2021/08/24 11:17:53;;;;;;;0.22;0.00;;;23.00;99.90;;;;;;5073056;28;20189;-74
2021/08/24 11:20:25;;;;;;;1.55;0.20;;;23.10;99.90;;;;;;5055477;28;20530;-73
2021/08/24 11:23:05;;;;;;;2.60;0.25;;;23.50;99.90;;;;;;5073915;28;20025;-74
2021/08/24 11:25:40;;;;;;;1.02;0.05;;;23.90;99.60;;;;;;5086660;28;20020;-74
2021/08/24 11:28:14;;;;;;;1.67;0.28;;;24.10;98.50;;;;;;5074167;28;20024;-75
2021/08/24 11:30:47;;;;;;;0.55;0.30;;;24.40;98.30;;;;;;5075402;28;20392;-74
2021/08/24 11:33:25;;;;;;;0.70;0.10;;;24.60;97.40;;;;;;5075582;28;20106;-75
2021/08/24 11:35:57;;;;;;;0.80;0.10;;;24.80;96.10;;;;;;5093405;28;20055;-74
2021/08/24 11:38:42;;;;;;;1.73;0.10;;;24.80;92.70;;;;;;5090119;28;20492;-75
2021/08/24 11:41:15;;;;;;;1.65;0.20;;;24.60;90.90;;;;;;5073109;28;20021;-76
2021/08/24 11:43:40;;;;;;;1.00;0.00;;;24.40;93.50;;;;;;5073239;28;20500;-74
2021/08/24 11:46:14;;;;;;;0.90;0.35;;;24.40;93.70;;;;;;5072971;28;20021;-74
2021/08/24 11:48:42;;;;;;;0.30;0.00;;;24.30;93.10;;;;;;5073115;28;20031;-74
2021/08/24 11:51:22;;;;;;;0.17;0.00;;;24.30;94.10;;;;;;5073133;28;20107;-74
2021/08/24 11:53:58;;;;;;;0.38;0.00;;;24.30;93.60;;;;;;5055100;28;20024;-75
2021/08/24 11:56:53;;;;;;;1.00;0.35;;;24.30;94.30;;;;;;5072829;28;20043;-73
2021/08/24 11:59:30;;;;;;;2.78;0.47;;;24.20;93.90;;;;;;5072970;28;20035;-73
2021/08/24 12:01:55;;;;;;;1.35;0.08;;;24.20;90.70;;;;;;5055157;28;20032;-74
2021/08/24 12:04:25;;;;;;;1.08;0.00;;;24.10;91.40;;;;;;5072881;28;20467;-74
2021/08/24 12:06:57;;;;;;;1.65;0.20;;;23.90;91.70;;;;;;5073235;28;20032;-74
2021/08/24 12:09:41;;;;;;;2.95;0.00;;;23.90;93.10;;;;;;5056691;28;20017;-75
2021/08/24 12:12:10;;;;;;;0.40;0.00;;;24.00;95.60;;;;;;5059005;28;20025;-74
2021/08/24 12:14:45;;;;;;;1.70;0.00;;;24.00;93.10;;;;;;5065697;28;20047;-74
2021/08/24 12:17:14;;;;;;;0.40;0.00;;;24.10;94.50;;;;;;5097455;28;20020;-74
2021/08/24 12:19:57;;;;;;;0.25;0.00;;;24.40;92.80;;;;;;5096362;28;20056;-74
2021/08/24 12:22:57;;;;;;;0.70;0.10;;;24.60;90.80;;;;;;5077783;28;20107;-75
2021/08/24 12:25:41;;;;;;;0.40;0.00;;;24.50;91.70;;;;;;5096711;28;20035;-75
2021/08/24 12:28:12;;;;;;;0.30;0.00;;;24.70;90.80;;;;;;5092287;28;20032;-76
2021/08/24 12:30:57;;;;;;;2.10;0.00;;;24.90;90.50;;;;;;5077228;28;20466;-76
2021/08/24 12:33:31;;;;;;;2.10;0.00;;;25.30;89.40;;;;;;5076974;28;20421;-76
2021/08/24 12:35:58;;;;;;;2.47;0.20;;;25.40;88.90;;;;;;5076369;28;20478;-73
2021/08/24 12:38:43;;;;;;;1.55;0.38;;;25.40;86.80;;;;;;5080105;28;20012;-76
2021/08/24 12:41:09;;;;;;;1.05;0.10;;;25.20;87.60;;;;;;5097102;28;20016;-75
2021/08/24 12:43:48;;;;;;;1.85;0.30;;;25.20;88.40;;;;;;5096541;28;20020;-75
2021/08/24 12:46:19;;;;;;;1.40;0.00;;;25.50;88.20;;;;;;5096773;28;20510;-73
2021/08/24 12:49:09;;;;;;;0.30;0.20;;;25.70;91.00;;;;;;5064456;22;20121;-76
2021/08/24 12:51:42;;;;;;;0.70;0.00;;;25.70;82.80;;;;;;5036195;28;20033;-73
2021/08/24 12:54:09;;;;;;;0.98;0.05;;;25.70;88.20;;;;;;5036337;28;20033;-73
2021/08/24 12:56:41;;;;;;;0.77;0.05;;;25.50;82.90;;;;;;5036152;28;20053;-76
2021/08/24 12:59:10;;;;;;;4.18;0.00;;;25.50;87.60;;;;;;5018661;28;20022;-73
2021/08/24 13:01:39;;;;;;;0.10;0.00;;;25.50;86.30;;;;;;5036003;28;20095;-73
2021/08/24 13:04:10;;;;;;;0.35;0.00;;;25.70;88.50;;;;;;5018421;28;20387;-73
2021/08/24 13:06:43;;;;;;;1.52;0.35;;;25.70;81.00;;;;;;5044954;28;20083;-75
2021/08/24 13:09:37;;;;;;;1.60;0.00;;;25.50;84.70;;;;;;5036316;28;20037;-74
2021/08/24 13:12:11;;;;;;;0.43;0.10;;;25.50;83.40;;;;;;5049748;28;20029;-74